Owensburg, Indiana
Current Conditions -  °F | °C
As of 10:53 PM on Wednesday 28 Jan 2015 (Local Time) from KBMG Reporting Station
Clear Clear  
Wind Chill: -4°   Ceiling: Unl
Heat Index:   Visibility: 10mi
Dew Point: -8°   Wind: 15mph
Humidity: 48%   Direction: 150°SSE
Pressure: 30.03"   Gusts: NA
Location:  38.92°N, 86.73°W
Report Text: KBMG 290353Z AUTO 15013KT 10SM CLR 02/M08 A3003 RMK AO2 SLP176 T00171083
Loading
Personal Weather Stations






























Interactive Weather Map New forecast layout! Learn more

10-Day Weather Forecast

Advertisements
Track Severe Weather on mobile